sensor_id;sensor_type;location;lat;lon;timestamp;pressure;altitude;pressure_sealevel;temperature
21336;BMP180;69435;52.670;13.544;2023-07-30T00:00:10;100137.00;;;22.40
21336;BMP180;69435;52.670;13.544;2023-07-30T00:02:56;100122.00;;;22.40
21336;BMP180;69435;52.670;13.544;2023-07-30T00:05:42;100150.00;;;22.40
21336;BMP180;69435;52.670;13.544;2023-07-30T00:08:28;100153.00;;;22.30
21336;BMP180;69435;52.670;13.544;2023-07-30T00:11:14;100151.00;;;22.30
21336;BMP180;69435;52.670;13.544;2023-07-30T00:14:00;100138.00;;;22.30
21336;BMP180;69435;52.670;13.544;2023-07-30T00:16:46;100153.00;;;22.20
21336;BMP180;69435;52.670;13.544;2023-07-30T00:19:32;100161.00;;;22.20
21336;BMP180;69435;52.670;13.544;2023-07-30T00:22:19;100146.00;;;22.10
21336;BMP180;69435;52.670;13.544;2023-07-30T00:25:05;100147.00;;;22.10
21336;BMP180;69435;52.670;13.544;2023-07-30T00:27:53;100146.00;;;22.10
21336;BMP180;69435;52.670;13.544;2023-07-30T00:30:39;100151.00;;;22.10
21336;BMP180;69435;52.670;13.544;2023-07-30T00:33:25;100127.00;;;22.00
21336;BMP180;69435;52.670;13.544;2023-07-30T00:36:11;100128.00;;;22.00
21336;BMP180;69435;52.670;13.544;2023-07-30T00:38:57;100149.00;;;22.00
21336;BMP180;69435;52.670;13.544;2023-07-30T00:41:43;100147.00;;;22.00
21336;BMP180;69435;52.670;13.544;2023-07-30T00:44:29;100149.00;;;22.00
21336;BMP180;69435;52.670;13.544;2023-07-30T00:47:15;100139.00;;;21.90
21336;BMP180;69435;52.670;13.544;2023-07-30T00:50:02;100119.00;;;21.90
21336;BMP180;69435;52.670;13.544;2023-07-30T00:52:49;100141.00;;;21.90
21336;BMP180;69435;52.670;13.544;2023-07-30T00:55:35;100123.00;;;21.90
21336;BMP180;69435;52.670;13.544;2023-07-30T00:58:23;100143.00;;;21.80
21336;BMP180;69435;52.670;13.544;2023-07-30T01:01:10;100133.00;;;21.80
21336;BMP180;69435;52.670;13.544;2023-07-30T01:03:56;100130.00;;;21.70
21336;BMP180;69435;52.670;13.544;2023-07-30T01:06:43;100125.00;;;21.70
21336;BMP180;69435;52.670;13.544;2023-07-30T01:09:29;100122.00;;;21.60
21336;BMP180;69435;52.670;13.544;2023-07-30T01:12:15;100128.00;;;21.60
21336;BMP180;69435;52.670;13.544;2023-07-30T01:15:02;100111.00;;;21.50
21336;BMP180;69435;52.670;13.544;2023-07-30T01:17:49;100119.00;;;21.50
21336;BMP180;69435;52.670;13.544;2023-07-30T01:20:35;100135.00;;;21.50
21336;BMP180;69435;52.670;13.544;2023-07-30T01:23:21;100124.00;;;21.50
21336;BMP180;69435;52.670;13.544;2023-07-30T01:26:19;100114.00;;;21.50
21336;BMP180;69435;52.670;13.544;2023-07-30T01:29:42;100136.00;;;21.40
21336;BMP180;69435;52.670;13.544;2023-07-30T01:32:28;100128.00;;;21.30
21336;BMP180;69435;52.670;13.544;2023-07-30T01:35:15;100145.00;;;21.30
21336;BMP180;69435;52.670;13.544;2023-07-30T01:38:02;100147.00;;;21.20
21336;BMP180;69435;52.670;13.544;2023-07-30T01:40:51;100146.00;;;21.20
21336;BMP180;69435;52.670;13.544;2023-07-30T01:43:37;100147.00;;;21.10
21336;BMP180;69435;52.670;13.544;2023-07-30T01:46:23;100160.00;;;21.10
21336;BMP180;69435;52.670;13.544;2023-07-30T01:49:09;100169.00;;;21.10
21336;BMP180;69435;52.670;13.544;2023-07-30T01:51:55;100170.00;;;21.00
21336;BMP180;69435;52.670;13.544;2023-07-30T01:54:41;100168.00;;;21.00
21336;BMP180;69435;52.670;13.544;2023-07-30T01:57:28;100154.00;;;21.00
21336;BMP180;69435;52.670;13.544;2023-07-30T02:00:14;100139.00;;;21.00
21336;BMP180;69435;52.670;13.544;2023-07-30T02:03:00;100172.00;;;20.90
21336;BMP180;69435;52.670;13.544;2023-07-30T02:05:46;100184.00;;;20.90
21336;BMP180;69435;52.670;13.544;2023-07-30T02:08:32;100185.00;;;20.90
21336;BMP180;69435;52.670;13.544;2023-07-30T02:11:18;100181.00;;;20.90
21336;BMP180;69435;52.670;13.544;2023-07-30T02:14:04;100188.00;;;20.90
21336;BMP180;69435;52.670;13.544;2023-07-30T02:16:50;100171.00;;;20.80
21336;BMP180;69435;52.670;13.544;2023-07-30T02:19:36;100169.00;;;20.80
21336;BMP180;69435;52.670;13.544;2023-07-30T02:22:22;100149.00;;;20.80
21336;BMP180;69435;52.670;13.544;2023-07-30T02:25:08;100170.00;;;20.80
21336;BMP180;69435;52.670;13.544;2023-07-30T02:27:54;100175.00;;;20.70
21336;BMP180;69435;52.670;13.544;2023-07-30T02:30:40;100162.00;;;20.70
21336;BMP180;69435;52.670;13.544;2023-07-30T02:33:26;100155.00;;;20.70
21336;BMP180;69435;52.670;13.544;2023-07-30T02:36:12;100164.00;;;20.60
21336;BMP180;69435;52.670;13.544;2023-07-30T02:38:58;100175.00;;;20.60
21336;BMP180;69435;52.670;13.544;2023-07-30T02:41:44;100171.00;;;20.60
21336;BMP180;69435;52.670;13.544;2023-07-30T02:44:30;100175.00;;;20.60
21336;BMP180;69435;52.670;13.544;2023-07-30T02:47:16;100181.00;;;20.50
21336;BMP180;69435;52.670;13.544;2023-07-30T02:50:04;100170.00;;;20.50
21336;BMP180;69435;52.670;13.544;2023-07-30T02:52:50;100172.00;;;20.50
21336;BMP180;69435;52.670;13.544;2023-07-30T02:55:36;100169.00;;;20.50
21336;BMP180;69435;52.670;13.544;2023-07-30T02:58:22;100163.00;;;20.50
21336;BMP180;69435;52.670;13.544;2023-07-30T03:01:08;100171.00;;;20.50
21336;BMP180;69435;52.670;13.544;2023-07-30T03:03:55;100185.00;;;20.40
21336;BMP180;69435;52.670;13.544;2023-07-30T03:06:41;100175.00;;;20.50
21336;BMP180;69435;52.670;13.544;2023-07-30T03:09:27;100186.00;;;20.50
21336;BMP180;69435;52.670;13.544;2023-07-30T03:12:13;100192.00;;;20.50
21336;BMP180;69435;52.670;13.544;2023-07-30T03:14:59;100186.00;;;20.60
21336;BMP180;69435;52.670;13.544;2023-07-30T03:17:45;100189.00;;;20.70
21336;BMP180;69435;52.670;13.544;2023-07-30T03:20:31;100191.00;;;20.70
21336;BMP180;69435;52.670;13.544;2023-07-30T03:23:17;100182.00;;;20.70
21336;BMP180;69435;52.670;13.544;2023-07-30T03:26:03;100188.00;;;20.70
21336;BMP180;69435;52.670;13.544;2023-07-30T03:28:49;100196.00;;;20.70
21336;BMP180;69435;52.670;13.544;2023-07-30T03:31:35;100189.00;;;20.70
21336;BMP180;69435;52.670;13.544;2023-07-30T03:34:21;100184.00;;;20.70
21336;BMP180;69435;52.670;13.544;2023-07-30T03:37:08;100202.00;;;20.60
21336;BMP180;69435;52.670;13.544;2023-07-30T03:39:54;100170.00;;;20.70
21336;BMP180;69435;52.670;13.544;2023-07-30T03:42:40;100152.00;;;20.60
21336;BMP180;69435;52.670;13.544;2023-07-30T03:45:25;100181.00;;;20.60
21336;BMP180;69435;52.670;13.544;2023-07-30T03:48:11;100193.00;;;20.60
21336;BMP180;69435;52.670;13.544;2023-07-30T03:50:57;100187.00;;;20.60
21336;BMP180;69435;52.670;13.544;2023-07-30T03:53:44;100204.00;;;20.60
21336;BMP180;69435;52.670;13.544;2023-07-30T03:56:30;100196.00;;;20.60
21336;BMP180;69435;52.670;13.544;2023-07-30T03:59:16;100200.00;;;20.60
21336;BMP180;69435;52.670;13.544;2023-07-30T04:02:02;100209.00;;;20.60
21336;BMP180;69435;52.670;13.544;2023-07-30T04:04:48;100209.00;;;20.60
21336;BMP180;69435;52.670;13.544;2023-07-30T04:07:35;100193.00;;;20.60
21336;BMP180;69435;52.670;13.544;2023-07-30T04:10:21;100209.00;;;20.60
21336;BMP180;69435;52.670;13.544;2023-07-30T04:13:07;100204.00;;;20.60
21336;BMP180;69435;52.670;13.544;2023-07-30T04:15:53;100210.00;;;20.60
21336;BMP180;69435;52.670;13.544;2023-07-30T04:18:39;100216.00;;;20.70
21336;BMP180;69435;52.670;13.544;2023-07-30T04:21:25;100218.00;;;20.70
21336;BMP180;69435;52.670;13.544;2023-07-30T04:24:11;100201.00;;;20.80
21336;BMP180;69435;52.670;13.544;2023-07-30T04:26:57;100221.00;;;20.80
21336;BMP180;69435;52.670;13.544;2023-07-30T04:29:43;100216.00;;;20.90
21336;BMP180;69435;52.670;13.544;2023-07-30T04:32:29;100214.00;;;21.00
21336;BMP180;69435;52.670;13.544;2023-07-30T04:35:15;100235.00;;;21.10
21336;BMP180;69435;52.670;13.544;2023-07-30T04:38:01;100184.00;;;21.20
21336;BMP180;69435;52.670;13.544;2023-07-30T04:40:47;100231.00;;;21.30
21336;BMP180;69435;52.670;13.544;2023-07-30T04:43:33;100226.00;;;21.40
21336;BMP180;69435;52.670;13.544;2023-07-30T04:46:19;100228.00;;;21.50
21336;BMP180;69435;52.670;13.544;2023-07-30T04:49:05;100240.00;;;21.50
21336;BMP180;69435;52.670;13.544;2023-07-30T04:51:51;100232.00;;;21.60
21336;BMP180;69435;52.670;13.544;2023-07-30T04:54:37;100225.00;;;21.70
21336;BMP180;69435;52.670;13.544;2023-07-30T04:57:23;100234.00;;;21.70
21336;BMP180;69435;52.670;13.544;2023-07-30T05:00:10;100234.00;;;21.80
21336;BMP180;69435;52.670;13.544;2023-07-30T05:02:56;100224.00;;;21.80
21336;BMP180;69435;52.670;13.544;2023-07-30T05:05:42;100231.00;;;21.90
21336;BMP180;69435;52.670;13.544;2023-07-30T05:08:28;100245.00;;;21.90
21336;BMP180;69435;52.670;13.544;2023-07-30T05:11:14;100225.00;;;22.00
21336;BMP180;69435;52.670;13.544;2023-07-30T05:14:00;100239.00;;;22.00
21336;BMP180;69435;52.670;13.544;2023-07-30T05:16:46;100247.00;;;22.00
21336;BMP180;69435;52.670;13.544;2023-07-30T05:19:32;100240.00;;;22.10
21336;BMP180;69435;52.670;13.544;2023-07-30T05:22:19;100226.00;;;22.10
21336;BMP180;69435;52.670;13.544;2023-07-30T05:25:05;100226.00;;;22.20
21336;BMP180;69435;52.670;13.544;2023-07-30T05:27:51;100237.00;;;22.20
21336;BMP180;69435;52.670;13.544;2023-07-30T05:30:38;100240.00;;;22.30
21336;BMP180;69435;52.670;13.544;2023-07-30T05:33:23;100229.00;;;22.50
21336;BMP180;69435;52.670;13.544;2023-07-30T05:36:09;100234.00;;;22.60
21336;BMP180;69435;52.670;13.544;2023-07-30T05:38:56;100210.00;;;22.90
21336;BMP180;69435;52.670;13.544;2023-07-30T05:41:41;100231.00;;;23.00
21336;BMP180;69435;52.670;13.544;2023-07-30T05:44:27;100228.00;;;23.20
21336;BMP180;69435;52.670;13.544;2023-07-30T05:47:13;100232.00;;;23.30
21336;BMP180;69435;52.670;13.544;2023-07-30T05:50:01;100220.00;;;23.50
21336;BMP180;69435;52.670;13.544;2023-07-30T05:52:47;100200.00;;;23.60
21336;BMP180;69435;52.670;13.544;2023-07-30T05:55:33;100228.00;;;23.80
21336;BMP180;69435;52.670;13.544;2023-07-30T05:58:19;100216.00;;;23.90
21336;BMP180;69435;52.670;13.544;2023-07-30T06:01:05;100227.00;;;24.00
21336;BMP180;69435;52.670;13.544;2023-07-30T06:03:51;100232.00;;;24.20
21336;BMP180;69435;52.670;13.544;2023-07-30T06:06:37;100229.00;;;24.30
21336;BMP180;69435;52.670;13.544;2023-07-30T06:09:23;100240.00;;;24.30
21336;BMP180;69435;52.670;13.544;2023-07-30T06:12:09;100237.00;;;24.30
21336;BMP180;69435;52.670;13.544;2023-07-30T06:14:55;100240.00;;;24.30
21336;BMP180;69435;52.670;13.544;2023-07-30T06:17:41;100237.00;;;24.40
21336;BMP180;69435;52.670;13.544;2023-07-30T06:20:27;100240.00;;;24.50
21336;BMP180;69435;52.670;13.544;2023-07-30T06:23:13;100233.00;;;24.60
21336;BMP180;69435;52.670;13.544;2023-07-30T06:25:58;100232.00;;;24.70
21336;BMP180;69435;52.670;13.544;2023-07-30T06:28:44;100224.00;;;24.80
21336;BMP180;69435;52.670;13.544;2023-07-30T06:31:30;100224.00;;;24.80
21336;BMP180;69435;52.670;13.544;2023-07-30T06:34:18;100236.00;;;24.90
21336;BMP180;69435;52.670;13.544;2023-07-30T06:37:04;100239.00;;;25.00
21336;BMP180;69435;52.670;13.544;2023-07-30T06:39:50;100244.00;;;25.20
21336;BMP180;69435;52.670;13.544;2023-07-30T06:42:36;100240.00;;;25.30
21336;BMP180;69435;52.670;13.544;2023-07-30T06:45:22;100242.00;;;25.40
21336;BMP180;69435;52.670;13.544;2023-07-30T06:48:08;100237.00;;;25.50
21336;BMP180;69435;52.670;13.544;2023-07-30T06:50:54;100239.00;;;25.60
21336;BMP180;69435;52.670;13.544;2023-07-30T06:53:40;100253.00;;;25.70
21336;BMP180;69435;52.670;13.544;2023-07-30T06:56:26;100240.00;;;25.70
21336;BMP180;69435;52.670;13.544;2023-07-30T06:59:12;100237.00;;;25.80
21336;BMP180;69435;52.670;13.544;2023-07-30T07:01:58;100232.00;;;25.90
21336;BMP180;69435;52.670;13.544;2023-07-30T07:04:45;100249.00;;;26.00
21336;BMP180;69435;52.670;13.544;2023-07-30T07:07:31;100252.00;;;26.20
21336;BMP180;69435;52.670;13.544;2023-07-30T07:10:17;100242.00;;;26.40
21336;BMP180;69435;52.670;13.544;2023-07-30T07:13:03;100245.00;;;26.70
21336;BMP180;69435;52.670;13.544;2023-07-30T07:15:49;100240.00;;;26.90
21336;BMP180;69435;52.670;13.544;2023-07-30T07:18:35;100241.00;;;27.10
21336;BMP180;69435;52.670;13.544;2023-07-30T07:21:21;100251.00;;;27.30
21336;BMP180;69435;52.670;13.544;2023-07-30T07:24:07;100241.00;;;27.40
21336;BMP180;69435;52.670;13.544;2023-07-30T07:26:53;100232.00;;;27.80
21336;BMP180;69435;52.670;13.544;2023-07-30T07:29:39;100206.00;;;28.00
21336;BMP180;69435;52.670;13.544;2023-07-30T07:32:25;100233.00;;;28.30
21336;BMP180;69435;52.670;13.544;2023-07-30T07:35:11;100229.00;;;28.80
21336;BMP180;69435;52.670;13.544;2023-07-30T07:37:57;100224.00;;;29.60
21336;BMP180;69435;52.670;13.544;2023-07-30T07:40:43;100233.00;;;30.30
21336;BMP180;69435;52.670;13.544;2023-07-30T07:43:29;100235.00;;;30.60
21336;BMP180;69435;52.670;13.544;2023-07-30T07:46:15;100232.00;;;30.60
21336;BMP180;69435;52.670;13.544;2023-07-30T07:49:01;100242.00;;;30.70
21336;BMP180;69435;52.670;13.544;2023-07-30T07:51:47;100236.00;;;30.70
21336;BMP180;69435;52.670;13.544;2023-07-30T07:54:34;100239.00;;;30.50
21336;BMP180;69435;52.670;13.544;2023-07-30T07:57:20;100221.00;;;30.20
21336;BMP180;69435;52.670;13.544;2023-07-30T08:00:07;100220.00;;;30.00
21336;BMP180;69435;52.670;13.544;2023-07-30T08:02:53;100245.00;;;30.00
21336;BMP180;69435;52.670;13.544;2023-07-30T08:05:39;100225.00;;;30.10
21336;BMP180;69435;52.670;13.544;2023-07-30T08:08:26;100233.00;;;30.30
21336;BMP180;69435;52.670;13.544;2023-07-30T08:11:12;100231.00;;;30.60
21336;BMP180;69435;52.670;13.544;2023-07-30T08:13:58;100228.00;;;30.80
21336;BMP180;69435;52.670;13.544;2023-07-30T08:16:44;100244.00;;;30.80
21336;BMP180;69435;52.670;13.544;2023-07-30T08:19:30;100238.00;;;30.80
21336;BMP180;69435;52.670;13.544;2023-07-30T08:22:16;100237.00;;;30.80
21336;BMP180;69435;52.670;13.544;2023-07-30T08:25:02;100246.00;;;31.00
21336;BMP180;69435;52.670;13.544;2023-07-30T08:27:49;100230.00;;;31.30
21336;BMP180;69435;52.670;13.544;2023-07-30T08:30:35;100246.00;;;31.70
21336;BMP180;69435;52.670;13.544;2023-07-30T08:33:21;100248.00;;;31.90
21336;BMP180;69435;52.670;13.544;2023-07-30T08:36:07;100250.00;;;31.80
21336;BMP180;69435;52.670;13.544;2023-07-30T08:38:53;100250.00;;;31.80
21336;BMP180;69435;52.670;13.544;2023-07-30T08:41:39;100245.00;;;32.20
21336;BMP180;69435;52.670;13.544;2023-07-30T08:44:25;100245.00;;;32.70
21336;BMP180;69435;52.670;13.544;2023-07-30T08:47:11;100245.00;;;33.20
21336;BMP180;69435;52.670;13.544;2023-07-30T08:49:57;100251.00;;;33.10
21336;BMP180;69435;52.670;13.544;2023-07-30T08:52:44;100255.00;;;32.80
21336;BMP180;69435;52.670;13.544;2023-07-30T08:55:33;100237.00;;;32.70
21336;BMP180;69435;52.670;13.544;2023-07-30T08:58:21;100253.00;;;32.80
21336;BMP180;69435;52.670;13.544;2023-07-30T09:01:11;100254.00;;;32.90
21336;BMP180;69435;52.670;13.544;2023-07-30T09:03:59;100249.00;;;32.60
21336;BMP180;69435;52.670;13.544;2023-07-30T09:06:49;100226.00;;;32.00
21336;BMP180;69435;52.670;13.544;2023-07-30T09:09:37;100247.00;;;31.50
21336;BMP180;69435;52.670;13.544;2023-07-30T09:12:31;100257.00;;;31.40
21336;BMP180;69435;52.670;13.544;2023-07-30T09:15:17;100252.00;;;31.80
21336;BMP180;69435;52.670;13.544;2023-07-30T09:18:07;100255.00;;;32.70
21336;BMP180;69435;52.670;13.544;2023-07-30T09:20:54;100247.00;;;33.60
21336;BMP180;69435;52.670;13.544;2023-07-30T09:23:46;100264.00;;;34.50
21336;BMP180;69435;52.670;13.544;2023-07-30T09:26:46;100247.00;;;35.30
21336;BMP180;69435;52.670;13.544;2023-07-30T09:29:32;100257.00;;;35.70
21336;BMP180;69435;52.670;13.544;2023-07-30T09:32:19;100254.00;;;36.10
21336;BMP180;69435;52.670;13.544;2023-07-30T09:35:09;100264.00;;;36.40
21336;BMP180;69435;52.670;13.544;2023-07-30T09:38:02;100275.00;;;36.50
21336;BMP180;69435;52.670;13.544;2023-07-30T09:40:49;100271.00;;;36.20
21336;BMP180;69435;52.670;13.544;2023-07-30T09:43:35;100280.00;;;35.90
21336;BMP180;69435;52.670;13.544;2023-07-30T09:46:21;100275.00;;;35.80
21336;BMP180;69435;52.670;13.544;2023-07-30T09:49:08;100273.00;;;35.90
21336;BMP180;69435;52.670;13.544;2023-07-30T09:51:55;100269.00;;;36.00
21336;BMP180;69435;52.670;13.544;2023-07-30T09:54:41;100274.00;;;36.20
21336;BMP180;69435;52.670;13.544;2023-07-30T09:57:27;100268.00;;;36.50
21336;BMP180;69435;52.670;13.544;2023-07-30T10:00:13;100276.00;;;36.90
21336;BMP180;69435;52.670;13.544;2023-07-30T10:03:02;100266.00;;;37.30
21336;BMP180;69435;52.670;13.544;2023-07-30T10:05:49;100270.00;;;37.50
21336;BMP180;69435;52.670;13.544;2023-07-30T10:08:39;100274.00;;;37.60
21336;BMP180;69435;52.670;13.544;2023-07-30T10:11:28;100285.00;;;37.60
21336;BMP180;69435;52.670;13.544;2023-07-30T10:14:17;100272.00;;;37.80
21336;BMP180;69435;52.670;13.544;2023-07-30T10:17:04;100288.00;;;37.60
21336;BMP180;69435;52.670;13.544;2023-07-30T10:19:50;100273.00;;;37.30
21336;BMP180;69435;52.670;13.544;2023-07-30T10:22:39;100280.00;;;36.90
21336;BMP180;69435;52.670;13.544;2023-07-30T10:25:43;100287.00;;;36.50
21336;BMP180;69435;52.670;13.544;2023-07-30T10:31:16;100272.00;;;36.50
21336;BMP180;69435;52.670;13.544;2023-07-30T10:34:07;100289.00;;;36.80
21336;BMP180;69435;52.670;13.544;2023-07-30T10:36:59;100286.00;;;37.00
21336;BMP180;69435;52.670;13.544;2023-07-30T10:39:48;100289.00;;;36.80
21336;BMP180;69435;52.670;13.544;2023-07-30T10:42:35;100291.00;;;36.30
21336;BMP180;69435;52.670;13.544;2023-07-30T10:45:26;100296.00;;;36.00
21336;BMP180;69435;52.670;13.544;2023-07-30T10:48:12;100290.00;;;35.70
21336;BMP180;69435;52.670;13.544;2023-07-30T10:50:58;100277.00;;;35.50
21336;BMP180;69435;52.670;13.544;2023-07-30T10:53:50;100281.00;;;35.30
21336;BMP180;69435;52.670;13.544;2023-07-30T10:56:37;100273.00;;;35.20
21336;BMP180;69435;52.670;13.544;2023-07-30T10:59:23;100279.00;;;35.20
21336;BMP180;69435;52.670;13.544;2023-07-30T11:02:09;100278.00;;;35.30
21336;BMP180;69435;52.670;13.544;2023-07-30T11:04:58;100268.00;;;35.50
21336;BMP180;69435;52.670;13.544;2023-07-30T11:07:51;100296.00;;;35.70
21336;BMP180;69435;52.670;13.544;2023-07-30T11:10:45;100287.00;;;35.70
21336;BMP180;69435;52.670;13.544;2023-07-30T11:13:37;100289.00;;;35.40
21336;BMP180;69435;52.670;13.544;2023-07-30T11:16:24;100291.00;;;34.90
21336;BMP180;69435;52.670;13.544;2023-07-30T11:19:10;100289.00;;;34.50
21336;BMP180;69435;52.670;13.544;2023-07-30T11:21:58;100277.00;;;33.90
21336;BMP180;69435;52.670;13.544;2023-07-30T11:24:44;100288.00;;;33.50
21336;BMP180;69435;52.670;13.544;2023-07-30T11:27:44;100275.00;;;33.40
21336;BMP180;69435;52.670;13.544;2023-07-30T11:30:31;100276.00;;;33.20
21336;BMP180;69435;52.670;13.544;2023-07-30T11:33:18;100275.00;;;33.30
21336;BMP180;69435;52.670;13.544;2023-07-30T11:36:07;100273.00;;;33.40
21336;BMP180;69435;52.670;13.544;2023-07-30T11:38:54;100282.00;;;33.50
21336;BMP180;69435;52.670;13.544;2023-07-30T11:41:40;100268.00;;;33.60
21336;BMP180;69435;52.670;13.544;2023-07-30T11:44:31;100261.00;;;33.60
21336;BMP180;69435;52.670;13.544;2023-07-30T11:47:21;100272.00;;;33.60
21336;BMP180;69435;52.670;13.544;2023-07-30T11:50:08;100260.00;;;33.60
21336;BMP180;69435;52.670;13.544;2023-07-30T11:52:56;100275.00;;;33.70
21336;BMP180;69435;52.670;13.544;2023-07-30T11:55:45;100262.00;;;33.90
21336;BMP180;69435;52.670;13.544;2023-07-30T11:58:31;100273.00;;;34.10
21336;BMP180;69435;52.670;13.544;2023-07-30T12:01:17;100267.00;;;34.10
21336;BMP180;69435;52.670;13.544;2023-07-30T12:04:06;100255.00;;;34.20
21336;BMP180;69435;52.670;13.544;2023-07-30T12:06:53;100271.00;;;34.20
21336;BMP180;69435;52.670;13.544;2023-07-30T12:09:39;100272.00;;;34.30
21336;BMP180;69435;52.670;13.544;2023-07-30T12:12:26;100266.00;;;34.40
21336;BMP180;69435;52.670;13.544;2023-07-30T12:15:13;100268.00;;;34.40
21336;BMP180;69435;52.670;13.544;2023-07-30T12:17:59;100271.00;;;34.40
21336;BMP180;69435;52.670;13.544;2023-07-30T12:20:46;100266.00;;;34.30
21336;BMP180;69435;52.670;13.544;2023-07-30T12:23:34;100246.00;;;34.30
21336;BMP180;69435;52.670;13.544;2023-07-30T12:26:20;100259.00;;;34.20
21336;BMP180;69435;52.670;13.544;2023-07-30T12:29:06;100255.00;;;34.00
21336;BMP180;69435;52.670;13.544;2023-07-30T12:31:53;100266.00;;;33.80
21336;BMP180;69435;52.670;13.544;2023-07-30T12:34:39;100245.00;;;33.70
21336;BMP180;69435;52.670;13.544;2023-07-30T12:37:25;100249.00;;;33.60
21336;BMP180;69435;52.670;13.544;2023-07-30T12:40:11;100239.00;;;33.60
21336;BMP180;69435;52.670;13.544;2023-07-30T12:42:57;100264.00;;;33.60
21336;BMP180;69435;52.670;13.544;2023-07-30T12:45:43;100260.00;;;33.70
21336;BMP180;69435;52.670;13.544;2023-07-30T12:48:29;100262.00;;;33.80
21336;BMP180;69435;52.670;13.544;2023-07-30T12:51:16;100270.00;;;33.80
21336;BMP180;69435;52.670;13.544;2023-07-30T12:54:02;100264.00;;;33.70
21336;BMP180;69435;52.670;13.544;2023-07-30T12:56:48;100265.00;;;33.50
21336;BMP180;69435;52.670;13.544;2023-07-30T12:59:34;100264.00;;;33.20
21336;BMP180;69435;52.670;13.544;2023-07-30T13:02:22;100267.00;;;33.00
21336;BMP180;69435;52.670;13.544;2023-07-30T13:05:08;100268.00;;;32.80
21336;BMP180;69435;52.670;13.544;2023-07-30T13:07:54;100268.00;;;32.70
21336;BMP180;69435;52.670;13.544;2023-07-30T13:10:41;100270.00;;;32.60
21336;BMP180;69435;52.670;13.544;2023-07-30T13:13:27;100248.00;;;32.50
21336;BMP180;69435;52.670;13.544;2023-07-30T13:16:13;100255.00;;;32.40
21336;BMP180;69435;52.670;13.544;2023-07-30T13:18:59;100241.00;;;32.30
21336;BMP180;69435;52.670;13.544;2023-07-30T13:21:45;100241.00;;;32.30
21336;BMP180;69435;52.670;13.544;2023-07-30T13:24:31;100238.00;;;32.30
21336;BMP180;69435;52.670;13.544;2023-07-30T13:27:17;100238.00;;;32.20
21336;BMP180;69435;52.670;13.544;2023-07-30T13:30:04;100210.00;;;32.10
21336;BMP180;69435;52.670;13.544;2023-07-30T13:32:51;100235.00;;;31.90
21336;BMP180;69435;52.670;13.544;2023-07-30T13:35:36;100251.00;;;31.70
21336;BMP180;69435;52.670;13.544;2023-07-30T13:38:22;100237.00;;;31.60
21336;BMP180;69435;52.670;13.544;2023-07-30T13:41:11;100228.00;;;31.50
21336;BMP180;69435;52.670;13.544;2023-07-30T13:43:57;100228.00;;;31.40
21336;BMP180;69435;52.670;13.544;2023-07-30T13:46:43;100234.00;;;31.40
21336;BMP180;69435;52.670;13.544;2023-07-30T13:49:29;100217.00;;;31.30
21336;BMP180;69435;52.670;13.544;2023-07-30T13:52:15;100229.00;;;31.20
21336;BMP180;69435;52.670;13.544;2023-07-30T13:55:01;100222.00;;;31.10
21336;BMP180;69435;52.670;13.544;2023-07-30T13:57:47;100229.00;;;31.00
21336;BMP180;69435;52.670;13.544;2023-07-30T14:00:33;100234.00;;;30.90
21336;BMP180;69435;52.670;13.544;2023-07-30T14:03:19;100244.00;;;30.80
21336;BMP180;69435;52.670;13.544;2023-07-30T14:06:05;100225.00;;;30.70
21336;BMP180;69435;52.670;13.544;2023-07-30T14:08:51;100234.00;;;30.60
21336;BMP180;69435;52.670;13.544;2023-07-30T14:11:37;100226.00;;;30.50
21336;BMP180;69435;52.670;13.544;2023-07-30T14:14:23;100234.00;;;30.50
21336;BMP180;69435;52.670;13.544;2023-07-30T14:17:09;100216.00;;;30.50
21336;BMP180;69435;52.670;13.544;2023-07-30T14:19:55;100223.00;;;30.50
21336;BMP180;69435;52.670;13.544;2023-07-30T14:22:41;100230.00;;;30.40
21336;BMP180;69435;52.670;13.544;2023-07-30T14:25:27;100238.00;;;30.40
21336;BMP180;69435;52.670;13.544;2023-07-30T14:28:13;100230.00;;;30.20
21336;BMP180;69435;52.670;13.544;2023-07-30T14:31:00;100220.00;;;30.10
21336;BMP180;69435;52.670;13.544;2023-07-30T14:33:46;100231.00;;;30.00
21336;BMP180;69435;52.670;13.544;2023-07-30T14:36:32;100261.00;;;29.80
21336;BMP180;69435;52.670;13.544;2023-07-30T14:39:18;100258.00;;;29.70
21336;BMP180;69435;52.670;13.544;2023-07-30T14:42:04;100251.00;;;29.60
21336;BMP180;69435;52.670;13.544;2023-07-30T14:44:50;100275.00;;;29.50
21336;BMP180;69435;52.670;13.544;2023-07-30T14:47:36;100260.00;;;29.40
21336;BMP180;69435;52.670;13.544;2023-07-30T14:50:22;100259.00;;;29.10
21336;BMP180;69435;52.670;13.544;2023-07-30T14:53:09;100271.00;;;28.90
21336;BMP180;69435;52.670;13.544;2023-07-30T14:55:55;100278.00;;;28.80
21336;BMP180;69435;52.670;13.544;2023-07-30T14:58:41;100273.00;;;28.60
21336;BMP180;69435;52.670;13.544;2023-07-30T15:01:30;100283.00;;;28.40
21336;BMP180;69435;52.670;13.544;2023-07-30T15:04:16;100277.00;;;28.20
21336;BMP180;69435;52.670;13.544;2023-07-30T15:07:02;100284.00;;;28.10
21336;BMP180;69435;52.670;13.544;2023-07-30T15:09:49;100282.00;;;28.00
21336;BMP180;69435;52.670;13.544;2023-07-30T15:12:38;100282.00;;;28.00
21336;BMP180;69435;52.670;13.544;2023-07-30T15:15:24;100277.00;;;27.90
21336;BMP180;69435;52.670;13.544;2023-07-30T15:18:10;100291.00;;;27.70
21336;BMP180;69435;52.670;13.544;2023-07-30T15:20:57;100288.00;;;27.60
21336;BMP180;69435;52.670;13.544;2023-07-30T15:23:45;100256.00;;;27.50
21336;BMP180;69435;52.670;13.544;2023-07-30T15:26:31;100276.00;;;27.30
21336;BMP180;69435;52.670;13.544;2023-07-30T15:29:17;100275.00;;;27.20
21336;BMP180;69435;52.670;13.544;2023-07-30T15:32:04;100264.00;;;27.00
21336;BMP180;69435;52.670;13.544;2023-07-30T15:34:50;100229.00;;;27.00